Tiempo atmosférico en la estación meteorológica de Calvià, Son Vic Nou, Illes Balears (35 m.)



Fecha
DESCASC
Temp. máxima en grados centígrados (hora)
DESCASC
Temp. mínima en grados centígrados (hora)
DESCASC
Temp. media en grados centígrados
DESCASC
Racha de viento máxima en m/sg (hora)
DESCASC
Velocidad máxima media en intervalos de 10 minutos(hora)
DESCASC
Precipitaciones diarias en mm
DESCASC
Precipitaciones de 00:00 a 06:00 en mm
DESCASC
Precipitaciones de 06:00 a 12:00 en mm
DESCASC
Precipitaciones de 12:00 a 18:00 en mm
DESCASC
Precipitaciones de 18:00 a 24:00 en mm
DESCASC

Gráficas

Temp. máximas Temp. mínimas Temp. medias Precipitaciones Rachas de viento máximas Velocidades máximas media en intervalos de 10 minutos

Datos horarios

Fecha y hora oficial Temperatura (ºC) Velocidad del viento (km/h) Dirección del viento Racha (km/h) Dirección de racha Precipitación (mm) Presión (hPa) Tendencia (hPa) Humedad (%)
2020-01-19 23:00:00 10.2 18 Nordeste 37 Nordeste 0.4 -- -- 83
2020-01-19 22:00:00 10.4 21 Nordeste 41 Nordeste 0 -- -- 84
2020-01-19 21:00:00 10.5 19 Nordeste 47 Nordeste 0 -- -- 85
2020-01-19 20:00:00 10.4 19 Nordeste 31 Nordeste 0 -- -- 91
2020-01-19 19:00:00 9.8 10 Nordeste 25 Nordeste 1.2 -- -- 94
2020-01-19 18:00:00 10.1 6 Nordeste 19 Nordeste 4.4 -- -- 94
2020-01-19 17:00:00 10.5 7 Nordeste 19 Nordeste 4.2 -- -- 95
2020-01-19 16:00:00 10.9 9 Nordeste 20 Nordeste 3.4 -- -- 95
2020-01-19 15:00:00 11 9 Nordeste 22 Nordeste 3.4 -- -- 95
2020-01-19 14:00:00 11.2 11 Nordeste 23 Nordeste 2.2 -- -- 95
2020-01-19 13:00:00 11.7 6 Nordeste 38 Nordeste 1.6 -- -- 95
2020-01-19 12:00:00 12 18 Nordeste 35 Nordeste 2.4 -- -- 95
2020-01-19 11:00:00 12.2 8 Nordeste 15 Este 2.6 -- -- 95
2020-01-19 10:00:00 12.2 6 Nordeste 15 Este 1.8 -- -- 95
2020-01-19 09:00:00 12 6 Nordeste 13 Nordeste 0 -- -- 95
2020-01-19 08:00:00 11.7 5 Nordeste 14 Nordeste 0 -- -- 95
2020-01-19 07:00:00 11.3 6 Nordeste 10 Norte 0.8 -- -- 96
2020-01-19 06:00:00 11.4 3 Este 11 Norte 0.2 -- -- 95
2020-01-19 05:00:00 11.5 5 Nordeste 10 Norte 0.8 -- -- 94
2020-01-19 04:00:00 11.3 3 Noroeste 8 Norte 0.8 -- -- 94
2020-01-19 03:00:00 10.6 2 Nordeste 5 Nordeste 0.4 -- -- 93
2020-01-19 02:00:00 10.8 2 Este 8 Norte 0.2 -- -- 92
2020-01-19 01:00:00 9.9 3 Este 4 Este 0 -- -- 91
2020-01-19 00:00:00 9.5 2 Este 5 Este 0 -- -- 91
2020-01-18 23:00:00 8.4 0 Calma 7 Este 0 -- -- 90
2020-01-18 22:00:00 7.4 4 Este 7 Este 0 -- -- 88
2020-01-18 21:00:00 7.3 0 Calma 6 Este 0 -- -- 86
2020-01-18 20:00:00 8.4 4 Este 8 Este 0 -- -- 81
2020-01-18 19:00:00 9.1 0 Calma 8 Norte 0 -- -- 77
2020-01-18 18:00:00 10.7 2 Norte 6 Noroeste 0 -- -- 70
2020-01-18 17:00:00 15.5 4 Sudoeste 9 Sudoeste 0 -- -- 58
2020-01-18 16:00:00 16.5 6 Oeste 12 Sudoeste 0 -- -- 55
2020-01-18 15:00:00 16.9 7 Sudoeste 12 Sudoeste 0 -- -- 52
2020-01-18 14:00:00 17 4 Sudoeste 8 Sudoeste 0 -- -- 61
2020-01-18 13:00:00 15.1 0 Calma 6 Este 0 -- -- 67
2020-01-18 12:00:00 13.3 2 Este 5 Este 0 -- -- 77
2020-01-18 11:00:00 11.7 0 Calma 6 Noroeste 0 -- -- 82
2020-01-18 10:00:00 8.8 3 Este 6 Noroeste 0 -- -- 85
2020-01-18 09:00:00 6.3 4 Nordeste 10 Este 0 -- -- 85
2020-01-18 08:00:00 4.6 3 Nordeste 9 Nordeste 0 -- -- 84
2020-01-18 07:00:00 5.2 3 Nordeste 9 Norte 0 -- -- 81
2020-01-18 06:00:00 6.2 4 Norte 8 Noroeste 0 -- -- 76
2020-01-18 05:00:00 6.9 4 Norte 9 Este 0 -- -- 71
2020-01-18 04:00:00 10.7 0 Calma 14 Norte 0 -- -- 61
2020-01-18 03:00:00 12.3 6 Norte 19 Norte 0 -- -- 59
2020-01-18 02:00:00 13.1 5 Norte 26 Norte 0 -- -- 57
2020-01-18 01:00:00 14.1 10 Norte 22 Norte 0 -- -- 59
2020-01-18 00:00:00 14.1 11 Norte 24 Norte 0 -- -- 64
2020-01-17 23:00:00 10.1 3 Norte 10 Norte 0 -- -- 81
2020-01-17 22:00:00 7.4 3 Noroeste 6 Noroeste 0 -- -- 86
2020-01-17 21:00:00 8.4 4 Este 12 Este 0 -- -- 83
2020-01-17 20:00:00 9 3 Este 8 Este 0 -- -- 81
2020-01-17 19:00:00 10.3 2 Norte 6 Este 0 -- -- 77
2020-01-17 18:00:00 12.4 2 Noroeste 15 Noroeste 0 -- -- 72
2020-01-17 17:00:00 15.9 11 Noroeste 22 Oeste 0 -- -- 65
2020-01-17 16:00:00 18.2 10 Noroeste 26 Norte 0 -- -- 59
2020-01-17 15:00:00 18.9 6 Noroeste 29 Noroeste 0 -- -- 65
2020-01-17 14:00:00 17.2 17 Oeste 32 Oeste 0 -- -- 66
2020-01-17 13:00:00 16.6 22 Sudoeste 37 Oeste 0 -- -- 68
2020-01-17 12:00:00 16.8 17 Oeste 32 Sudoeste 0 -- -- 75
2020-01-17 11:00:00 16.2 13 Sudoeste 25 Sudoeste 0 -- -- 89
2020-01-17 10:00:00 14.7 9 Sudoeste 17 Sudoeste 0 -- -- 96
2020-01-17 09:00:00 11.8 4 Nordeste 7 Este 0 -- -- 97
2020-01-17 08:00:00 11.4 5 Este 10 Este 0 -- -- 97
2020-01-17 07:00:00 11.2 3 Sudeste 8 Este 0 -- -- 97
2020-01-17 06:00:00 10.3 3 Este 8 Este 0 -- -- 96
2020-01-17 05:00:00 9.7 3 Este 8 Este 0 -- -- 96
2020-01-17 04:00:00 9.2 4 Este 6 Este 0 -- -- 95
2020-01-17 03:00:00 9.3 3 Este 5 Este 0 -- -- 95
2020-01-17 02:00:00 9.7 3 Este 5 Este 0 -- -- 95
2020-01-17 01:00:00 10 2 Este 5 Este 0 -- -- 94
2020-01-17 00:00:00 10.2 0 Calma 6 Este 0 -- -- 93
2020-01-16 23:00:00 10.7 2 Norte 3 Norte 0 -- -- 93
2020-01-16 22:00:00 10.1 0 Calma 6 Este 0 -- -- 92
2020-01-16 21:00:00 9.6 3 Este 6 Este 0 -- -- 91
2020-01-16 20:00:00 10.1 3 Este 5 Este 0 -- -- 89
2020-01-16 19:00:00 10.6 0 Calma 6 Norte 0 -- -- 86
2020-01-16 18:00:00 12.4 2 Norte 6 Norte 0 -- -- 81
2020-01-16 17:00:00 15.3 4 Sudoeste 9 Sudoeste 0 -- -- 75
2020-01-16 16:00:00 17.1 6 Sur 16 Sur 0 -- -- 72
2020-01-16 15:00:00 16.9 9 Sudoeste 15 Sudoeste 0 -- -- 72
2020-01-16 14:00:00 17.4 8 Sur 16 Sur 0 -- -- 73
2020-01-16 13:00:00 16.5 4 Sur 15 Sudeste 0 -- -- 78
2020-01-16 12:00:00 15.9 2 Norte 7 Nordeste 0 -- -- 82
2020-01-16 11:00:00 14.5 4 Nordeste 7 Nordeste 0 -- -- 85
2020-01-16 10:00:00 9.2 2 Nordeste 9 Este 0 -- -- 91
2020-01-16 09:00:00 5.3 2 Nordeste 8 Este 0 -- -- 94
2020-01-16 08:00:00 4.6 4 Este 7 Este 0 -- -- 92
2020-01-16 07:00:00 3.7 4 Este 6 Este 0 -- -- 92
2020-01-16 06:00:00 3.8 0 Calma 10 Este 0 -- -- 91
2020-01-16 05:00:00 4.1 3 Nordeste 10 Este 0 -- -- 91
2020-01-16 04:00:00 4.5 0 Calma 10 Este 0 -- -- 92
2020-01-16 03:00:00 4.7 0 Calma 9 Este 0 -- -- 92
2020-01-16 02:00:00 5.6 2 Nordeste 7 Este 0 -- -- 93
2020-01-16 01:00:00 6.1 5 Este 9 Este 0 -- -- 91
2020-01-16 00:00:00 6.2 3 Este 9 Este 0 -- -- 93
2020-01-15 23:00:00 6.8 6 Este 9 Este 0 -- -- 91
2020-01-15 22:00:00 7.1 3 Nordeste 9 Este 0 -- -- 91
2020-01-15 21:00:00 7.3 2 Nordeste 10 Este 0 -- -- 89
2020-01-15 20:00:00 8.1 3 Este 8 Este 0 -- -- 86
2020-01-15 19:00:00 8.6 2 Este 5 Norte 0 -- -- 83
2020-01-15 18:00:00 11.1 3 Oeste 11 Oeste 0 -- -- 77
2020-01-15 17:00:00 13.5 8 Oeste 18 Oeste 0 -- -- 71
2020-01-15 16:00:00 14.1 11 Sudoeste 17 Sudoeste 0 -- -- 68
2020-01-15 15:00:00 14.1 7 Oeste 27 Oeste 0 -- -- 68
2020-01-15 14:00:00 14.6 15 Oeste 30 Oeste 0 -- -- 69
2020-01-15 13:00:00 15.5 11 Oeste 23 Oeste 0 -- -- 68
2020-01-15 12:00:00 14.6 11 Sudoeste 19 Sudoeste 0 -- -- 73
2020-01-15 11:00:00 14.3 9 Sudoeste 17 Sudoeste 0 -- -- 79
2020-01-15 10:00:00 12 2 Nordeste 5 Este 0 -- -- 90
2020-01-15 09:00:00 9.5 0 Calma 5 Este 0 -- -- 90
2020-01-15 08:00:00 8.8 3 Nordeste 6 Este 0 -- -- 88
2020-01-15 07:00:00 9 3 Este 9 Este 0 -- -- 86
2020-01-15 06:00:00 9.2 4 Nordeste 8 Este 0 -- -- 85
2020-01-15 05:00:00 8.6 3 Este 6 Este 0 -- -- 82
2020-01-15 04:00:00 9.9 2 Este 16 Sudoeste 0 -- -- 76
2020-01-15 03:00:00 12.8 8 Sudoeste 23 Sudoeste 0 -- -- 75
2020-01-15 02:00:00 13.2 8 Sudoeste 14 Sudoeste 0 -- -- 78
2020-01-15 01:00:00 12 2 Sudeste 8 Sudeste 0 -- -- 78
2020-01-15 00:00:00 12.2 4 Sudeste 17 Sur 0 -- -- 74
2020-01-14 23:00:00 12.4 6 Sur 18 Sudoeste 0 -- -- 76
2020-01-14 22:00:00 12.6 9 Sur 19 Sur 0 -- -- 81
2020-01-14 21:00:00 11.2 6 Sur 19 Sur 0 -- -- 85
2020-01-14 20:00:00 10.3 2 Nordeste 6 Norte 0 -- -- 81
2020-01-14 19:00:00 10.6 3 Nordeste 9 Sur 0 -- -- 77
2020-01-14 18:00:00 12.9 6 Sudeste 14 Sudeste 0 -- -- 72
2020-01-14 17:00:00 14.8 9 Sur 20 Sudoeste 0 -- -- 67
2020-01-14 16:00:00 15.5 10 Sur 24 Sudoeste 0 -- -- 66
2020-01-14 15:00:00 15.2 14 Sudoeste 23 Sudoeste 0 -- -- 66
2020-01-14 14:00:00 15.9 15 Sudoeste 26 Sudoeste 0 -- -- 63
2020-01-14 13:00:00 15.3 16 Sudoeste 27 Sur 0 -- -- 66
2020-01-14 12:00:00 15 16 Sudoeste 25 Sur 0 -- -- 68
2020-01-14 11:00:00 14.3 13 Sudoeste 23 Sur 0 -- -- 71
2020-01-14 10:00:00 13.8 11 Sudoeste 21 Sudoeste 0 -- -- 76
2020-01-14 09:00:00 12.9 10 Sudoeste 20 Sudoeste 0 -- -- 78
2020-01-14 08:00:00 12.8 9 Sudoeste 20 Sudoeste 0 -- -- 79
2020-01-14 07:00:00 12.9 12 Sudoeste 22 Sudoeste 0 -- -- 79
2020-01-14 06:00:00 12.7 8 Sudoeste 20 Sudoeste 0 -- -- 79
2020-01-14 05:00:00 12.6 8 Sudoeste 22 Sudoeste 0 -- -- 78
2020-01-14 04:00:00 12.7 8 Sudoeste 23 Sudoeste 0 -- -- 78
2020-01-14 03:00:00 12.9 11 Sudoeste 24 Sudoeste 0 -- -- 76
2020-01-14 02:00:00 12.9 11 Sudoeste 23 Sudoeste 0 -- -- 76
2020-01-14 01:00:00 12.8 12 Sudoeste 23 Sudoeste 0 -- -- 77
2020-01-14 00:00:00 12.8 13 Sudoeste 24 Sudoeste 0 -- -- 76
2020-01-13 23:00:00 12.6 11 Sudoeste 22 Sudoeste 0 -- -- 76
2020-01-13 22:00:00 12.6 8 Sudoeste 19 Sudoeste 0 -- -- 78
2020-01-13 21:00:00 9.4 2 Este 9 Este 0 -- -- 84
2020-01-13 20:00:00 10.2 0 Calma 6 Sudoeste 0 -- -- 83
2020-01-13 19:00:00 9.7 3 Norte 8 Noroeste 0 -- -- 81
2020-01-13 18:00:00 11.4 0 Calma 15 Sudoeste 0 -- -- 72
2020-01-13 17:00:00 13.5 6 Sudoeste 18 Sudoeste 0 -- -- 71
2020-01-13 16:00:00 14.1 10 Sudoeste 21 Sudoeste 0 -- -- 72
2020-01-13 15:00:00 14 11 Sudoeste 21 Sudoeste 0 -- -- 73
2020-01-13 14:00:00 14.5 10 Sudoeste 21 Oeste 0 -- -- 73
2020-01-13 13:00:00 14.5 10 Sudoeste 18 Sur 0 -- -- 77
2020-01-13 12:00:00 14.2 8 Sudoeste 15 Sudoeste 0 -- -- 84
2020-01-13 11:00:00 12.4 5 Sur 9 Sur 0 -- -- 94
2020-01-13 10:00:00 7.9 3 Este 7 Este 0.2 -- -- 97
2020-01-13 09:00:00 3 3 Nordeste 9 Este 0 -- -- 96
2020-01-13 08:00:00 2.6 4 Este 9 Este 0 -- -- 98
2020-01-13 07:00:00 2.6 4 Este 8 Este 0 -- -- 95
2020-01-13 06:00:00 2.9 5 Este 10 Este 0 -- -- 96
2020-01-13 05:00:00 2.5 5 Este 11 Este 0 -- -- 94
2020-01-13 04:00:00 2.9 4 Nordeste 8 Este 0 -- -- 95
2020-01-13 03:00:00 2.5 4 Nordeste 9 Este 0 -- -- 94
2020-01-13 02:00:00 2.9 4 Este 7 Este 0 -- -- 92
2020-01-13 01:00:00 3.2 3 Este 8 Este 0 -- -- 93
2020-01-13 00:00:00 3.6 4 Este 8 Este 0 -- -- 91
2020-01-12 23:00:00 4.4 4 Este 8 Este 0 -- -- 89
2020-01-12 22:00:00 4.6 4 Este 9 Este 0 -- -- 89
2020-01-12 21:00:00 5.6 0 Calma 9 Este 0 -- -- 87
2020-01-12 20:00:00 6.2 0 Calma 5 Sudeste 0 -- -- 84
2020-01-12 19:00:00 7.5 0 Calma 5 Norte 0 -- -- 80
2020-01-12 18:00:00 8.8 3 Norte 8 Norte 0 -- -- 73
2020-01-12 17:00:00 17 0 Calma 11 Sudoeste 0 -- -- 58
2020-01-12 16:00:00 17 4 Norte 18 Noroeste 0 -- -- 59
2020-01-12 15:00:00 15.4 10 Norte 26 Norte 0 -- -- 63
2020-01-12 14:00:00 15.3 15 Norte 26 Norte 0 -- -- 65
2020-01-12 13:00:00 15 9 Norte 30 Norte 0 -- -- 69
2020-01-12 12:00:00 13.4 14 Norte 25 Norte 0 -- -- 78
2020-01-12 11:00:00 12.9 5 Nordeste 11 Este 0 -- -- 91
2020-01-12 10:00:00 8.8 4 Este 9 Este 0 -- -- 96
2020-01-12 09:00:00 4.5 4 Este 11 Este 0 -- -- 96
2020-01-12 08:00:00 2.9 3 Este 10 Este 0 -- -- 95
2020-01-12 07:00:00 2.8 0 Calma 9 Este 0 -- -- 96
2020-01-12 06:00:00 2.9 2 Nordeste 8 Este 0 -- -- 93
2020-01-12 05:00:00 3.3 3 Nordeste 9 Este 0 -- -- 94
2020-01-12 04:00:00 2.7 2 Nordeste 10 Este 0 -- -- 94
2020-01-12 03:00:00 3.3 2 Nordeste 10 Este 0 -- -- 93
2020-01-12 02:00:00 3.5 4 Este 8 Este 0 -- -- 93
2020-01-12 01:00:00 3.8 4 Este 7 Este 0 -- -- 92
2020-01-12 00:00:00 3.8 3 Nordeste 5 Norte 0 -- -- 90
2020-01-11 23:00:00 3.9 2 Nordeste 6 Este 0 -- -- 88
2020-01-11 22:00:00 4.7 0 Calma 5 Norte 0 -- -- 86
2020-01-11 21:00:00 5.3 0 Calma 4 Noroeste 0 -- -- 83
2020-01-11 20:00:00 5.9 0 Calma 5 Nordeste 0 -- -- 79
2020-01-11 19:00:00 8.1 3 Este 16 Nordeste 0 -- -- 73
2020-01-11 18:00:00 11 5 Nordeste 15 Norte 0 -- -- 69
2020-01-11 17:00:00 12.1 8 Nordeste 21 Nordeste 0 -- -- 66
2020-01-11 16:00:00 12.9 5 Norte 27 Nordeste 0 -- -- 65
2020-01-11 15:00:00 13.9 12 Nordeste 41 Norte 0 -- -- 64
2020-01-11 14:00:00 14.5 15 Norte 33 Norte 0 -- -- 61
2020-01-11 13:00:00 14.8 12 Norte 26 Norte 0 -- -- 62
2020-01-11 12:00:00 14.6 7 Norte 20 Norte 0 -- -- 66
2020-01-11 11:00:00 13.6 4 Este 10 Este 0 -- -- 71
2020-01-11 10:00:00 12.6 6 Nordeste 21 Nordeste 0 -- -- 73
2020-01-11 09:00:00 11.3 12 Nordeste 27 Nordeste 0 -- -- 77
2020-01-11 08:00:00 11.5 15 Nordeste 27 Nordeste 0 -- -- 80
2020-01-11 07:00:00 10.1 8 Norte 17 Nordeste 0 -- -- 90
2020-01-11 06:00:00 6.3 0 Calma 8 Este 0 -- -- 86
2020-01-11 05:00:00 6.9 0 Calma 7 Nordeste 0 -- -- 84
2020-01-11 04:00:00 9.2 5 Nordeste 27 Nordeste 0 -- -- 78
2020-01-11 03:00:00 11.9 12 Nordeste 34 Nordeste 0 -- -- 74
2020-01-11 02:00:00 12.1 14 Nordeste 30 Este 0 -- -- 73
2020-01-11 01:00:00 11.1 8 Nordeste 22 Nordeste 0 -- -- 80
2020-01-11 00:00:00 11.7 13 Nordeste 28 Nordeste 0 -- -- 86
2020-01-10 23:00:00 8.6 4 Nordeste 7 Este 0 -- -- 94
2020-01-10 22:00:00 8.7 0 Calma 8 Este 0 -- -- 93
2020-01-10 21:00:00 8.4 4 Nordeste 7 Este 0 -- -- 94
2020-01-10 20:00:00 9.1 2 Norte 8 Norte 0 -- -- 92
2020-01-10 19:00:00 9.7 0 Calma 9 Nordeste 0.2 -- -- 92
2020-01-10 18:00:00 10.7 5 Norte 13 Norte 0 -- -- 91
2020-01-10 17:00:00 11 6 Norte 17 Norte 0.6 -- -- 90
2020-01-10 16:00:00 11.1 4 Norte 11 Nordeste 1 -- -- 89
2020-01-10 15:00:00 10.9 6 Nordeste 15 Nordeste 2.4 -- -- 86
2020-01-10 14:00:00 12.4 7 Norte 17 Noroeste 0.4 -- -- 85
2020-01-10 13:00:00 13.5 4 Nordeste 12 Sudeste 0 -- -- 82
2020-01-10 12:00:00 14.9 4 Sudoeste 9 Sur 0 -- -- 86
2020-01-10 11:00:00 13.6 4 Sur 5 Sur 0 -- -- 95
2020-01-10 10:00:00 9.1 3 Nordeste 8 Este 0 -- -- 96
2020-01-10 09:00:00 7.4 0 Calma 6 Este 0 -- -- 96
2020-01-10 08:00:00 6.5 3 Nordeste 10 Este 0 -- -- 96
2020-01-10 07:00:00 5.9 3 Nordeste 11 Este 0 -- -- 95
2020-01-10 06:00:00 6.4 3 Este 10 Este 0 -- -- 93
2020-01-10 05:00:00 7 7 Este 10 Noroeste 0 -- -- 95
2020-01-10 04:00:00 6.8 4 Este 7 Este 0 -- -- 93
2020-01-10 03:00:00 6.9 4 Este 7 Este 0 -- -- 93
2020-01-10 02:00:00 6 2 Este 10 Este 0 -- -- 90
2020-01-10 01:00:00 5.6 3 Este 6 Este 0 -- -- 91
2020-01-10 00:00:00 5.5 2 Nordeste 6 Este 0 -- -- 90
2020-01-09 23:00:00 5.8 4 Este 9 Este 0 -- -- 90
2020-01-09 22:00:00 6.2 2 Nordeste 9 Este 0 -- -- 88
2020-01-09 21:00:00 7.3 5 Nordeste 9 Este 0 -- -- 87
2020-01-09 20:00:00 7.4 3 Nordeste 8 Este 0 -- -- 84
2020-01-09 19:00:00 8.8 2 Este 5 Norte 0 -- -- 80
2020-01-09 18:00:00 10.8 0 Calma 9 Oeste 0 -- -- 74
2020-01-09 17:00:00 14.1 4 Oeste 13 Oeste 0 -- -- 67
2020-01-09 16:00:00 17 8 Oeste 15 Sur 0 -- -- 62
2020-01-09 15:00:00 17 9 Sudoeste 14 Sudoeste 0 -- -- 64
2020-01-09 14:00:00 17.1 7 Sudoeste 15 Oeste 0 -- -- 66
2020-01-09 13:00:00 16.5 8 Sudoeste 15 Sudoeste 0 -- -- 70
2020-01-09 12:00:00 16.2 5 Sur 10 Sur 0 -- -- 79
2020-01-09 11:00:00 14 3 Sudeste 7 Sudeste 0 -- -- 93
2020-01-09 10:00:00 9.3 0 Calma 7 Este 0 -- -- 96
2020-01-09 09:00:00 4.8 3 Nordeste 8 Este 0 -- -- 97
2020-01-09 08:00:00 4.6 4 Este 8 Este 0 -- -- 95
2020-01-09 07:00:00 4.2 0 Calma 4 Este 0 -- -- 95
2020-01-09 06:00:00 4.4 2 Este 8 Este 0 -- -- 95
2020-01-09 05:00:00 4.2 2 Este 7 Este 0 -- -- 94
2020-01-09 04:00:00 3.9 3 Nordeste 8 Este 0 -- -- 94
2020-01-09 03:00:00 5 3 Este 6 Este 0 -- -- 93
2020-01-09 02:00:00 6.2 4 Este 8 Este 0 -- -- 95
2020-01-09 01:00:00 5.7 2 Este 9 Este 0 -- -- 93
2020-01-09 00:00:00 5.6 2 Este 4 Este 0 -- -- 92
2020-01-08 23:00:00 6.7 2 Nordeste 5 Noroeste 0 -- -- 90
2020-01-08 22:00:00 7.1 0 Calma 5 Norte 0 -- -- 88
2020-01-08 21:00:00 7.5 0 Calma 4 Noroeste 0 -- -- 86
2020-01-08 20:00:00 9.5 0 Calma 6 Norte 0 -- -- 84
2020-01-08 19:00:00 10.6 0 Calma 8 Este 0 -- -- 80
2020-01-08 18:00:00 11.8 0 Calma 13 Oeste 0 -- -- 74
2020-01-08 17:00:00 14.5 5 Oeste 13 Sudoeste 0 -- -- 68
2020-01-08 16:00:00 15.8 6 Oeste 12 Sur 0 -- -- 64
2020-01-08 15:00:00 16.9 10 Sudoeste 16 Sudoeste 0 -- -- 63
2020-01-08 14:00:00 19.1 6 Sudeste 15 Nordeste 0 -- -- 58
2020-01-08 13:00:00 16.5 8 Nordeste 25 Nordeste 0 -- -- 66
2020-01-08 12:00:00 16.1 10 Nordeste 27 Este 0 -- -- 64
2020-01-08 11:00:00 14.9 5 Este 16 Norte 0 -- -- 78
2020-01-08 10:00:00 10.2 3 Sudeste 7 Este 0 -- -- 90
2020-01-08 09:00:00 5 0 Calma 10 Este 0 -- -- 93
2020-01-08 08:00:00 3.9 3 Nordeste 10 Este 0 -- -- 92
2020-01-08 07:00:00 3.3 5 Este 8 Este 0 -- -- 92
2020-01-08 06:00:00 4.2 5 Este 9 Este 0 -- -- 92
2020-01-08 05:00:00 5.3 6 Este 9 Este 0 -- -- 92
2020-01-08 04:00:00 5.2 3 Este 10 Este 0 -- -- 92
2020-01-08 03:00:00 4.9 6 Este 11 Este 0 -- -- 91
2020-01-08 02:00:00 5 5 Este 13 Este 0 -- -- 91
2020-01-08 01:00:00 4.8 0 Calma 8 Este 0 -- -- 90
2020-01-08 00:00:00 4.2 4 Nordeste 9 Este 0 -- -- 89
2020-01-07 23:00:00 5 5 Este 9 Este 0 -- -- 87
2020-01-07 22:00:00 5.1 3 Este 5 Este 0 -- -- 85
2020-01-07 21:00:00 6.3 4 Este 6 Este 0 -- -- 83
2020-01-07 20:00:00 6.7 2 Nordeste 6 Noroeste 0 -- -- 82
2020-01-07 19:00:00 9 3 Nordeste 10 Norte 0 -- -- 78
2020-01-07 18:00:00 11.1 5 Norte 12 Norte 0 -- -- 74
2020-01-07 17:00:00 14.7 6 Noroeste 16 Noroeste 0 -- -- 68
2020-01-07 16:00:00 16.5 8 Norte 19 Noroeste 0 -- -- 67
2020-01-07 15:00:00 17 9 Noroeste 19 Noroeste 0 -- -- 68
2020-01-07 14:00:00 18 5 Noroeste 16 Noroeste 0 -- -- 68
2020-01-07 13:00:00 15 9 Noroeste 19 Noroeste 0 -- -- 76
2020-01-07 12:00:00 15.5 9 Noroeste 19 Norte 0 -- -- 80
2020-01-07 11:00:00 14.1 6 Norte 15 Noroeste 0 -- -- 84
2020-01-07 10:00:00 13.5 5 Norte 12 Norte 0 -- -- 87
2020-01-07 09:00:00 9.2 2 Nordeste 8 Este 0 -- -- 91
2020-01-07 08:00:00 7.7 0 Calma 8 Este 0 -- -- 91
2020-01-07 07:00:00 7.1 2 Nordeste 6 Este 0 -- -- 90
2020-01-07 06:00:00 8.6 2 Nordeste 8 Nordeste 0 -- -- 87
2020-01-07 05:00:00 11.6 3 Nordeste 8 Este 0 -- -- 86
2020-01-07 04:00:00 12.6 0 Calma 13 Norte 0 -- -- 86
2020-01-07 03:00:00 10.4 3 Norte 8 Nordeste 0 -- -- 89
2020-01-07 02:00:00 9.8 0 Calma 6 Este 0 -- -- 89
2020-01-07 01:00:00 10.1 0 Calma 4 Noroeste 0 -- -- 88
2020-01-07 00:00:00 10.1 0 Calma 3 Nordeste 0 -- -- 88
2020-01-06 23:00:00 9.5 0 Calma 4 Este 0 -- -- 86
2020-01-06 22:00:00 9.6 0 Calma 4 Este 0 -- -- 85
2020-01-06 21:00:00 9.5 2 Este 6 Este 0 -- -- 84
2020-01-06 20:00:00 9.8 4 Este 6 Este 0 -- -- 82
2020-01-06 19:00:00 10 3 Nordeste 8 Norte 0 -- -- 78
2020-01-06 18:00:00 11.9 4 Norte 10 Norte 0 -- -- 74
2020-01-06 17:00:00 14.4 6 Noroeste 14 Norte 0 -- -- 67
2020-01-06 16:00:00 16.9 9 Norte 17 Nordeste 0 -- -- 63
2020-01-06 15:00:00 16.5 8 Nordeste 19 Nordeste 0 -- -- 63
2020-01-06 14:00:00 17.6 8 Norte 22 Noroeste 0 -- -- 66
2020-01-06 13:00:00 15.3 9 Norte 17 Norte 0 -- -- 71
2020-01-06 12:00:00 15.7 3 Nordeste 8 Sudeste 0 -- -- 79
2020-01-06 11:00:00 12.9 0 Calma 5 Este 0 -- -- 89
2020-01-06 10:00:00 10.2 3 Nordeste 8 Este 0 -- -- 91